sensor_id;sensor_type;location;lat;lon;timestamp;pressure;altitude;pressure_sealevel;temperature;humidity
76627;BME280;65519;53.230;10.390;2023-07-20T00:01:07;100880.97;;;14.34;87.96
76627;BME280;65519;53.230;10.390;2023-07-20T00:03:33;100884.81;;;14.33;87.76
76627;BME280;65519;53.230;10.390;2023-07-20T00:05:58;100888.19;;;14.25;88.07
76627;BME280;65519;53.230;10.390;2023-07-20T00:08:24;100893.59;;;14.35;87.61
76627;BME280;65519;53.230;10.390;2023-07-20T00:10:49;100886.56;;;14.24;87.92
76627;BME280;65519;53.230;10.390;2023-07-20T00:13:15;100882.66;;;14.30;88.03
76627;BME280;65519;53.230;10.390;2023-07-20T00:15:41;100879.44;;;14.23;87.93
76627;BME280;65519;53.230;10.390;2023-07-20T00:18:07;100877.78;;;14.27;87.24
76627;BME280;65519;53.230;10.390;2023-07-20T00:20:32;100877.56;;;14.18;88.08
76627;BME280;65519;53.230;10.390;2023-07-20T00:22:58;100877.78;;;14.27;87.34
76627;BME280;65519;53.230;10.390;2023-07-20T00:25:24;100880.78;;;14.25;87.29
76627;BME280;65519;53.230;10.390;2023-07-20T00:27:50;100886.56;;;14.24;87.49
76627;BME280;65519;53.230;10.390;2023-07-20T00:30:16;100879.53;;;14.13;87.92
76627;BME280;65519;53.230;10.390;2023-07-20T00:32:43;100881.91;;;14.24;87.42
76627;BME280;65519;53.230;10.390;2023-07-20T00:35:09;100890.75;;;14.16;87.76
76627;BME280;65519;53.230;10.390;2023-07-20T00:37:35;100885.03;;;14.13;87.20
76627;BME280;65519;53.230;10.390;2023-07-20T00:40:00;100886.06;;;14.17;87.11
76627;BME280;65519;53.230;10.390;2023-07-20T00:42:26;100887.75;;;14.13;87.20
76627;BME280;65519;53.230;10.390;2023-07-20T00:44:51;100887.88;;;13.98;87.27
76627;BME280;65519;53.230;10.390;2023-07-20T00:47:17;100877.50;;;13.95;87.17
76627;BME280;65519;53.230;10.390;2023-07-20T00:49:43;100879.72;;;13.93;86.88
76627;BME280;65519;53.230;10.390;2023-07-20T00:52:10;100880.03;;;13.86;87.37
76627;BME280;65519;53.230;10.390;2023-07-20T00:54:38;100883.31;;;13.88;88.43
76627;BME280;65519;53.230;10.390;2023-07-20T00:57:04;100880.28;;;13.89;87.41
76627;BME280;65519;53.230;10.390;2023-07-20T00:59:31;100881.28;;;14.04;87.27
76627;BME280;65519;53.230;10.390;2023-07-20T01:01:56;100872.22;;;14.03;86.66
76627;BME280;65519;53.230;10.390;2023-07-20T01:04:22;100871.72;;;13.96;86.86
76627;BME280;65519;53.230;10.390;2023-07-20T01:06:58;100878.56;;;13.99;87.16
76627;BME280;65519;53.230;10.390;2023-07-20T01:12:43;100872.59;;;13.92;87.30
76627;BME280;65519;53.230;10.390;2023-07-20T01:15:12;100867.13;;;13.92;87.29
76627;BME280;65519;53.230;10.390;2023-07-20T01:17:38;100865.38;;;14.01;87.69
76627;BME280;65519;53.230;10.390;2023-07-20T01:20:07;100868.22;;;13.91;87.23
76627;BME280;65519;53.230;10.390;2023-07-20T01:22:58;100870.91;;;13.96;87.42
76627;BME280;65519;53.230;10.390;2023-07-20T01:28:34;100866.94;;;14.12;86.46
76627;BME280;65519;53.230;10.390;2023-07-20T01:33:40;100871.13;;;14.04;86.18
76627;BME280;65519;53.230;10.390;2023-07-20T01:36:07;100872.09;;;13.84;87.20
76627;BME280;65519;53.230;10.390;2023-07-20T01:38:33;100876.53;;;13.80;88.13
76627;BME280;65519;53.230;10.390;2023-07-20T01:40:58;100875.78;;;13.70;89.28
76627;BME280;65519;53.230;10.390;2023-07-20T01:43:24;100869.97;;;13.76;88.74
76627;BME280;65519;53.230;10.390;2023-07-20T01:45:49;100874.63;;;13.76;88.63
76627;BME280;65519;53.230;10.390;2023-07-20T01:48:15;100866.38;;;13.81;88.94
76627;BME280;65519;53.230;10.390;2023-07-20T01:50:41;100868.13;;;13.67;89.12
76627;BME280;65519;53.230;10.390;2023-07-20T01:53:06;100865.66;;;13.70;89.57
76627;BME280;65519;53.230;10.390;2023-07-20T01:55:32;100865.88;;;13.74;88.64
76627;BME280;65519;53.230;10.390;2023-07-20T01:57:58;100858.16;;;13.81;88.75
76627;BME280;65519;53.230;10.390;2023-07-20T02:00:25;100856.28;;;13.76;88.85
76627;BME280;65519;53.230;10.390;2023-07-20T02:02:51;100861.72;;;13.81;88.65
76627;BME280;65519;53.230;10.390;2023-07-20T02:05:16;100855.66;;;13.84;88.59
76627;BME280;65519;53.230;10.390;2023-07-20T02:07:42;100843.66;;;13.80;87.72
76627;BME280;65519;53.230;10.390;2023-07-20T02:10:08;100852.59;;;13.91;87.78
76627;BME280;65519;53.230;10.390;2023-07-20T02:12:34;100850.97;;;13.90;87.54
76627;BME280;65519;53.230;10.390;2023-07-20T02:15:00;100847.13;;;13.91;87.96
76627;BME280;65519;53.230;10.390;2023-07-20T02:17:26;100856.91;;;13.97;87.30
76627;BME280;65519;53.230;10.390;2023-07-20T02:19:56;100857.13;;;14.06;86.99
76627;BME280;65519;53.230;10.390;2023-07-20T02:22:23;100857.13;;;14.06;86.72
76627;BME280;65519;53.230;10.390;2023-07-20T02:24:48;100855.72;;;14.08;87.14
76627;BME280;65519;53.230;10.390;2023-07-20T02:27:14;100846.75;;;14.03;87.15
76627;BME280;65519;53.230;10.390;2023-07-20T02:29:41;100851.66;;;14.06;87.58
76627;BME280;65519;53.230;10.390;2023-07-20T02:32:07;100843.66;;;14.09;87.15
76627;BME280;65519;53.230;10.390;2023-07-20T02:34:33;100851.88;;;14.09;87.25
76627;BME280;65519;53.230;10.390;2023-07-20T02:36:59;100848.91;;;14.06;87.31
76627;BME280;65519;53.230;10.390;2023-07-20T02:39:29;100853.84;;;14.04;87.25
76627;BME280;65519;53.230;10.390;2023-07-20T02:41:55;100851.81;;;13.85;88.94
76627;BME280;65519;53.230;10.390;2023-07-20T02:44:20;100865.94;;;14.03;88.50
76627;BME280;65519;53.230;10.390;2023-07-20T02:46:46;100866.88;;;14.17;88.42
76627;BME280;65519;53.230;10.390;2023-07-20T02:49:11;100867.19;;;14.15;87.92
76627;BME280;65519;53.230;10.390;2023-07-20T02:51:37;100860.81;;;14.20;88.18
76627;BME280;65519;53.230;10.390;2023-07-20T02:54:02;100858.06;;;14.20;88.37
76627;BME280;65519;53.230;10.390;2023-07-20T02:56:29;100860.78;;;14.25;88.13
76627;BME280;65519;53.230;10.390;2023-07-20T02:58:54;100859.47;;;14.17;87.99
76627;BME280;65519;53.230;10.390;2023-07-20T03:01:20;100864.47;;;14.10;89.31
76627;BME280;65519;53.230;10.390;2023-07-20T03:03:46;100864.13;;;14.17;88.39
76627;BME280;65519;53.230;10.390;2023-07-20T03:06:15;100862.28;;;14.12;88.63
76627;BME280;65519;53.230;10.390;2023-07-20T03:08:41;100870.44;;;14.17;89.06
76627;BME280;65519;53.230;10.390;2023-07-20T03:11:13;100881.41;;;14.17;89.02
76627;BME280;65519;53.230;10.390;2023-07-20T03:13:41;100881.38;;;14.22;88.80
76627;BME280;65519;53.230;10.390;2023-07-20T03:16:07;100883.53;;;14.25;88.97
76627;BME280;65519;53.230;10.390;2023-07-20T03:18:37;100885.47;;;14.25;88.84
76627;BME280;65519;53.230;10.390;2023-07-20T03:21:04;100884.53;;;14.35;88.64
76627;BME280;65519;53.230;10.390;2023-07-20T03:23:30;100887.53;;;14.38;89.38
76627;BME280;65519;53.230;10.390;2023-07-20T03:25:55;100887.09;;;14.26;88.54
76627;BME280;65519;53.230;10.390;2023-07-20T03:28:22;100881.19;;;14.14;89.15
76627;BME280;65519;53.230;10.390;2023-07-20T03:30:53;100877.09;;;14.11;89.53
76627;BME280;65519;53.230;10.390;2023-07-20T03:33:19;100885.59;;;14.10;88.86
76627;BME280;65519;53.230;10.390;2023-07-20T03:35:45;100893.69;;;14.25;88.80
76627;BME280;65519;53.230;10.390;2023-07-20T03:38:10;100890.22;;;14.14;89.45
76627;BME280;65519;53.230;10.390;2023-07-20T03:40:36;100882.91;;;14.05;88.53
76627;BME280;65519;53.230;10.390;2023-07-20T03:43:01;100892.72;;;14.11;88.48
76627;BME280;65519;53.230;10.390;2023-07-20T03:45:27;100886.47;;;14.05;89.35
76627;BME280;65519;53.230;10.390;2023-07-20T03:47:53;100885.19;;;13.93;89.46
76627;BME280;65519;53.230;10.390;2023-07-20T03:50:19;100884.91;;;13.94;89.42
76627;BME280;65519;53.230;10.390;2023-07-20T03:52:44;100885.78;;;13.84;89.32
76627;BME280;65519;53.230;10.390;2023-07-20T03:55:10;100889.53;;;13.99;89.71
76627;BME280;65519;53.230;10.390;2023-07-20T03:57:35;100891.72;;;13.97;90.28
76627;BME280;65519;53.230;10.390;2023-07-20T04:00:01;100896.25;;;13.82;90.21
76627;BME280;65519;53.230;10.390;2023-07-20T04:02:26;100897.44;;;14.05;89.46
76627;BME280;65519;53.230;10.390;2023-07-20T04:04:52;100905.50;;;13.92;89.48
76627;BME280;65519;53.230;10.390;2023-07-20T04:07:17;100906.88;;;13.89;90.44
76627;BME280;65519;53.230;10.390;2023-07-20T04:09:43;100904.91;;;13.95;89.56
76627;BME280;65519;53.230;10.390;2023-07-20T04:12:08;100903.38;;;13.83;90.17
76627;BME280;65519;53.230;10.390;2023-07-20T04:14:34;100905.22;;;13.88;90.56
76627;BME280;65519;53.230;10.390;2023-07-20T04:16:59;100905.50;;;13.92;90.30
76627;BME280;65519;53.230;10.390;2023-07-20T04:19:26;100904.41;;;13.87;89.25
76627;BME280;65519;53.230;10.390;2023-07-20T04:21:51;100906.03;;;13.88;89.41
76627;BME280;65519;53.230;10.390;2023-07-20T04:24:17;100910.44;;;13.84;90.65
76627;BME280;65519;53.230;10.390;2023-07-20T04:26:42;100907.13;;;13.93;90.16
76627;BME280;65519;53.230;10.390;2023-07-20T04:29:08;100908.25;;;13.86;89.39
76627;BME280;65519;53.230;10.390;2023-07-20T04:31:38;100911.72;;;13.97;89.82
76627;BME280;65519;53.230;10.390;2023-07-20T04:34:03;100915.81;;;14.05;89.36
76627;BME280;65519;53.230;10.390;2023-07-20T04:36:29;100909.50;;;14.04;89.16
76627;BME280;65519;53.230;10.390;2023-07-20T04:38:55;100913.47;;;14.17;90.38
76627;BME280;65519;53.230;10.390;2023-07-20T04:41:22;100915.19;;;14.13;89.50
76627;BME280;65519;53.230;10.390;2023-07-20T04:43:49;100913.97;;;14.24;89.69
76627;BME280;65519;53.230;10.390;2023-07-20T04:46:22;100911.78;;;14.26;89.20
76627;BME280;65519;53.230;10.390;2023-07-20T04:48:49;100912.09;;;14.19;89.37
76627;BME280;65519;53.230;10.390;2023-07-20T04:51:15;100918.19;;;14.16;89.96
76627;BME280;65519;53.230;10.390;2023-07-20T04:53:42;100911.28;;;14.19;89.96
76627;BME280;65519;53.230;10.390;2023-07-20T04:56:09;100912.47;;;14.08;90.39
76627;BME280;65519;53.230;10.390;2023-07-20T04:58:36;100904.75;;;14.15;90.55
76627;BME280;65519;53.230;10.390;2023-07-20T05:01:01;100903.66;;;14.16;90.27
76627;BME280;65519;53.230;10.390;2023-07-20T05:03:27;100909.31;;;14.24;89.91
76627;BME280;65519;53.230;10.390;2023-07-20T05:05:53;100916.00;;;14.13;90.46
76627;BME280;65519;53.230;10.390;2023-07-20T05:08:19;100923.06;;;14.19;90.40
76627;BME280;65519;53.230;10.390;2023-07-20T05:10:47;100921.09;;;14.25;90.36
76627;BME280;65519;53.230;10.390;2023-07-20T05:13:13;100920.59;;;14.18;90.84
76627;BME280;65519;53.230;10.390;2023-07-20T05:15:39;100918.84;;;14.32;90.14
76627;BME280;65519;53.230;10.390;2023-07-20T05:18:07;100920.94;;;14.45;90.40
76627;BME280;65519;53.230;10.390;2023-07-20T05:20:34;100914.06;;;14.48;90.32
76627;BME280;65519;53.230;10.390;2023-07-20T05:23:00;100918.47;;;14.49;90.00
76627;BME280;65519;53.230;10.390;2023-07-20T05:25:26;100920.13;;;14.45;89.69
76627;BME280;65519;53.230;10.390;2023-07-20T05:27:52;100917.03;;;14.51;90.52
76627;BME280;65519;53.230;10.390;2023-07-20T05:30:18;100901.00;;;14.35;90.05
76627;BME280;65519;53.230;10.390;2023-07-20T05:32:44;100900.66;;;14.46;89.95
76627;BME280;65519;53.230;10.390;2023-07-20T05:35:12;100919.84;;;14.46;90.87
76627;BME280;65519;53.230;10.390;2023-07-20T05:37:39;100915.94;;;14.52;90.83
76627;BME280;65519;53.230;10.390;2023-07-20T05:40:05;100923.06;;;14.53;90.15
76627;BME280;65519;53.230;10.390;2023-07-20T05:42:31;100924.50;;;14.46;90.28
76627;BME280;65519;53.230;10.390;2023-07-20T05:44:56;100916.00;;;14.47;91.55
76627;BME280;65519;53.230;10.390;2023-07-20T05:47:22;100920.03;;;14.55;90.26
76627;BME280;65519;53.230;10.390;2023-07-20T05:49:47;100921.19;;;14.49;90.19
76627;BME280;65519;53.230;10.390;2023-07-20T05:52:13;100923.31;;;14.57;90.23
76627;BME280;65519;53.230;10.390;2023-07-20T05:54:38;100930.38;;;14.63;89.60
76627;BME280;65519;53.230;10.390;2023-07-20T05:57:04;100928.69;;;14.67;88.28
76627;BME280;65519;53.230;10.390;2023-07-20T05:59:30;100928.63;;;14.72;88.67
76627;BME280;65519;53.230;10.390;2023-07-20T06:01:55;100921.19;;;14.73;89.79
76627;BME280;65519;53.230;10.390;2023-07-20T06:04:21;100920.88;;;14.79;88.69
76627;BME280;65519;53.230;10.390;2023-07-20T06:06:46;100929.00;;;14.60;87.93
76627;BME280;65519;53.230;10.390;2023-07-20T06:09:12;100922.84;;;14.74;87.55
76627;BME280;65519;53.230;10.390;2023-07-20T06:11:38;100927.22;;;14.75;87.51
76627;BME280;65519;53.230;10.390;2023-07-20T06:14:04;100934.88;;;14.78;87.04
76627;BME280;65519;53.230;10.390;2023-07-20T06:16:30;100927.19;;;14.80;86.61
76627;BME280;65519;53.230;10.390;2023-07-20T06:18:55;100921.09;;;14.83;86.24
76627;BME280;65519;53.230;10.390;2023-07-20T06:21:21;100925.72;;;14.87;86.36
76627;BME280;65519;53.230;10.390;2023-07-20T06:23:47;100928.47;;;14.87;87.05
76627;BME280;65519;53.230;10.390;2023-07-20T06:26:12;100931.94;;;14.93;86.45
76627;BME280;65519;53.230;10.390;2023-07-20T06:28:38;100934.13;;;14.96;87.16
76627;BME280;65519;53.230;10.390;2023-07-20T06:31:03;100932.44;;;15.00;87.15
76627;BME280;65519;53.230;10.390;2023-07-20T06:33:29;100937.41;;;14.98;86.69
76627;BME280;65519;53.230;10.390;2023-07-20T06:35:55;100928.91;;;15.18;86.88
76627;BME280;65519;53.230;10.390;2023-07-20T06:38:22;100934.78;;;15.30;86.56
76627;BME280;65519;53.230;10.390;2023-07-20T06:40:49;100939.56;;;15.44;87.96
76627;BME280;65519;53.230;10.390;2023-07-20T06:43:16;100938.97;;;15.47;85.31
76627;BME280;65519;53.230;10.390;2023-07-20T06:45:41;100930.22;;;15.45;86.88
76627;BME280;65519;53.230;10.390;2023-07-20T06:48:07;100943.56;;;15.32;85.71
76627;BME280;65519;53.230;10.390;2023-07-20T06:50:33;100947.41;;;15.31;86.49
76627;BME280;65519;53.230;10.390;2023-07-20T06:52:59;100942.22;;;15.30;86.15
76627;BME280;65519;53.230;10.390;2023-07-20T06:55:25;100938.88;;;15.33;86.51
76627;BME280;65519;53.230;10.390;2023-07-20T06:58:17;100942.91;;;15.41;86.94
76627;BME280;65519;53.230;10.390;2023-07-20T07:00:43;100937.94;;;15.43;86.53
76627;BME280;65519;53.230;10.390;2023-07-20T07:03:09;100945.50;;;15.56;86.64
76627;BME280;65519;53.230;10.390;2023-07-20T07:05:36;100942.66;;;15.61;86.15
76627;BME280;65519;53.230;10.390;2023-07-20T07:08:02;100939.47;;;15.73;85.02
76627;BME280;65519;53.230;10.390;2023-07-20T07:10:28;100937.59;;;15.87;85.18
76627;BME280;65519;53.230;10.390;2023-07-20T07:12:53;100939.91;;;15.80;83.15
76627;BME280;65519;53.230;10.390;2023-07-20T07:15:19;100935.06;;;15.90;83.37
76627;BME280;65519;53.230;10.390;2023-07-20T07:17:44;100942.72;;;15.93;82.04
76627;BME280;65519;53.230;10.390;2023-07-20T07:20:10;100943.53;;;15.94;80.96
76627;BME280;65519;53.230;10.390;2023-07-20T07:22:35;100948.06;;;16.03;80.73
76627;BME280;65519;53.230;10.390;2023-07-20T07:25:01;100944.31;;;16.13;81.17
76627;BME280;65519;53.230;10.390;2023-07-20T07:27:28;100946.41;;;16.02;81.78
76627;BME280;65519;53.230;10.390;2023-07-20T07:29:53;100947.53;;;16.01;80.30
76627;BME280;65519;53.230;10.390;2023-07-20T07:32:20;100938.94;;;16.08;79.23
76627;BME280;65519;53.230;10.390;2023-07-20T07:34:46;100943.34;;;16.23;78.57
76627;BME280;65519;53.230;10.390;2023-07-20T07:37:13;100943.34;;;16.23;78.91
76627;BME280;65519;53.230;10.390;2023-07-20T07:39:39;100945.50;;;16.26;77.36
76627;BME280;65519;53.230;10.390;2023-07-20T07:42:05;100939.19;;;16.25;76.47
76627;BME280;65519;53.230;10.390;2023-07-20T07:44:31;100944.22;;;16.37;74.85
76627;BME280;65519;53.230;10.390;2023-07-20T07:46:56;100956.16;;;16.65;74.98
76627;BME280;65519;53.230;10.390;2023-07-20T07:49:22;100949.03;;;16.59;73.72
76627;BME280;65519;53.230;10.390;2023-07-20T07:51:48;100959.59;;;16.70;73.19
76627;BME280;65519;53.230;10.390;2023-07-20T07:54:14;100956.88;;;16.84;73.17
76627;BME280;65519;53.230;10.390;2023-07-20T07:56:39;100960.84;;;16.92;72.60
76627;BME280;65519;53.230;10.390;2023-07-20T07:59:06;100959.66;;;16.98;70.25
76627;BME280;65519;53.230;10.390;2023-07-20T08:01:32;100960.88;;;17.05;70.21
76627;BME280;65519;53.230;10.390;2023-07-20T08:03:57;100956.56;;;17.13;68.21
76627;BME280;65519;53.230;10.390;2023-07-20T08:06:23;100952.63;;;17.19;68.70
76627;BME280;65519;53.230;10.390;2023-07-20T08:08:49;100959.25;;;17.18;68.12
76627;BME280;65519;53.230;10.390;2023-07-20T08:11:15;100949.00;;;17.32;69.20
76627;BME280;65519;53.230;10.390;2023-07-20T08:13:43;100950.66;;;17.33;68.05
76627;BME280;65519;53.230;10.390;2023-07-20T08:16:08;100958.69;;;17.57;66.48
76627;BME280;65519;53.230;10.390;2023-07-20T08:18:34;100951.22;;;17.58;64.82
76627;BME280;65519;53.230;10.390;2023-07-20T08:20:59;100950.94;;;17.45;64.15
76627;BME280;65519;53.230;10.390;2023-07-20T08:23:25;100956.53;;;17.54;64.08
76627;BME280;65519;53.230;10.390;2023-07-20T08:25:52;100956.75;;;17.71;65.97
76627;BME280;65519;53.230;10.390;2023-07-20T08:28:18;100948.31;;;17.90;65.14
76627;BME280;65519;53.230;10.390;2023-07-20T08:30:46;100947.63;;;18.07;65.60
76627;BME280;65519;53.230;10.390;2023-07-20T08:33:16;100957.22;;;18.09;63.17
76627;BME280;65519;53.230;10.390;2023-07-20T08:35:44;100955.84;;;18.20;64.58
76627;BME280;65519;53.230;10.390;2023-07-20T08:38:09;100962.81;;;18.18;61.83
76627;BME280;65519;53.230;10.390;2023-07-20T08:40:40;100961.00;;;18.36;60.92
76627;BME280;65519;53.230;10.390;2023-07-20T08:43:05;100958.75;;;18.15;58.35
76627;BME280;65519;53.230;10.390;2023-07-20T08:45:33;100963.38;;;18.29;58.00
76627;BME280;65519;53.230;10.390;2023-07-20T08:48:00;100967.13;;;18.33;58.45
76627;BME280;65519;53.230;10.390;2023-07-20T08:50:30;100966.88;;;18.43;59.18
76627;BME280;65519;53.230;10.390;2023-07-20T08:52:57;100964.69;;;18.31;59.55
76627;BME280;65519;53.230;10.390;2023-07-20T08:55:23;100965.00;;;18.07;60.69
76627;BME280;65519;53.230;10.390;2023-07-20T08:57:57;100968.88;;;18.06;62.39
76627;BME280;65519;53.230;10.390;2023-07-20T09:00:24;100982.44;;;17.94;64.02
76627;BME280;65519;53.230;10.390;2023-07-20T09:02:53;100983.91;;;17.64;64.85
76627;BME280;65519;53.230;10.390;2023-07-20T09:05:20;100980.03;;;17.65;64.85
76627;BME280;65519;53.230;10.390;2023-07-20T09:07:46;100977.59;;;18.00;64.06
76627;BME280;65519;53.230;10.390;2023-07-20T09:10:12;100974.03;;;18.21;63.03
76627;BME280;65519;53.230;10.390;2023-07-20T09:12:39;100974.53;;;18.23;59.08
76627;BME280;65519;53.230;10.390;2023-07-20T09:15:06;100970.03;;;18.28;58.01
76627;BME280;65519;53.230;10.390;2023-07-20T09:17:32;100966.69;;;18.39;57.27
76627;BME280;65519;53.230;10.390;2023-07-20T09:19:57;100967.84;;;18.38;54.45
76627;BME280;65519;53.230;10.390;2023-07-20T09:22:32;100968.63;;;18.61;54.10
76627;BME280;65519;53.230;10.390;2023-07-20T09:24:58;100966.19;;;18.82;54.58
76627;BME280;65519;53.230;10.390;2023-07-20T09:27:39;100963.22;;;18.78;53.99
76627;BME280;65519;53.230;10.390;2023-07-20T09:30:06;100960.78;;;18.77;54.47
76627;BME280;65519;53.230;10.390;2023-07-20T09:35:06;100974.22;;;18.70;55.04
76627;BME280;65519;53.230;10.390;2023-07-20T09:37:33;100980.47;;;18.84;55.51
76627;BME280;65519;53.230;10.390;2023-07-20T09:39:59;100974.91;;;18.75;53.25
76627;BME280;65519;53.230;10.390;2023-07-20T09:42:24;100961.31;;;18.87;53.03
76627;BME280;65519;53.230;10.390;2023-07-20T09:44:52;100960.31;;;18.83;51.65
76627;BME280;65519;53.230;10.390;2023-07-20T09:47:24;100966.38;;;19.33;51.84
76627;BME280;65519;53.230;10.390;2023-07-20T09:49:49;100968.38;;;19.50;51.48
76627;BME280;65519;53.230;10.390;2023-07-20T09:52:20;100966.75;;;19.49;50.53
76627;BME280;65519;53.230;10.390;2023-07-20T09:54:46;100962.69;;;19.07;51.92
76627;BME280;65519;53.230;10.390;2023-07-20T09:57:12;100985.69;;;18.85;54.93
76627;BME280;65519;53.230;10.390;2023-07-20T09:59:39;100987.78;;;18.35;60.74
76627;BME280;65519;53.230;10.390;2023-07-20T10:02:32;101009.66;;;18.32;66.79
76627;BME280;65519;53.230;10.390;2023-07-20T10:04:58;101012.94;;;17.98;69.29
76627;BME280;65519;53.230;10.390;2023-07-20T10:07:27;101011.66;;;17.81;71.26
76627;BME280;65519;53.230;10.390;2023-07-20T10:09:55;101011.19;;;17.38;72.51
76627;BME280;65519;53.230;10.390;2023-07-20T10:12:22;101007.19;;;17.31;72.93
76627;BME280;65519;53.230;10.390;2023-07-20T10:14:54;101007.00;;;17.27;74.01
76627;BME280;65519;53.230;10.390;2023-07-20T10:17:25;101004.31;;;17.22;73.44
76627;BME280;65519;53.230;10.390;2023-07-20T10:19:54;100993.31;;;17.22;75.44
76627;BME280;65519;53.230;10.390;2023-07-20T10:22:29;100994.81;;;17.56;74.03
76627;BME280;65519;53.230;10.390;2023-07-20T10:24:57;100987.25;;;17.75;70.49
76627;BME280;65519;53.230;10.390;2023-07-20T10:27:24;100995.72;;;17.92;70.01
76627;BME280;65519;53.230;10.390;2023-07-20T10:29:51;100980.94;;;18.10;67.66
76627;BME280;65519;53.230;10.390;2023-07-20T10:32:17;100985.44;;;18.29;67.68
76627;BME280;65519;53.230;10.390;2023-07-20T10:34:50;100979.34;;;18.40;62.58
76627;BME280;65519;53.230;10.390;2023-07-20T10:37:49;100980.56;;;18.70;66.32
76627;BME280;65519;53.230;10.390;2023-07-20T10:42:50;100966.56;;;18.98;61.65
76627;BME280;65519;53.230;10.390;2023-07-20T10:45:19;100970.84;;;19.12;59.87
76627;BME280;65519;53.230;10.390;2023-07-20T10:47:47;100968.78;;;19.26;59.18
76627;BME280;65519;53.230;10.390;2023-07-20T10:50:13;100962.13;;;19.36;57.44
76627;BME280;65519;53.230;10.390;2023-07-20T10:52:41;100966.06;;;19.44;58.09
76627;BME280;65519;53.230;10.390;2023-07-20T10:55:16;100957.69;;;19.57;56.38
76627;BME280;65519;53.230;10.390;2023-07-20T10:57:42;100946.13;;;19.73;56.55
76627;BME280;65519;53.230;10.390;2023-07-20T11:00:12;100946.31;;;19.76;56.00
76627;BME280;65519;53.230;10.390;2023-07-20T11:02:46;100948.91;;;19.81;55.52
76627;BME280;65519;53.230;10.390;2023-07-20T11:05:44;100951.28;;;19.48;55.35
76627;BME280;65519;53.230;10.390;2023-07-20T11:08:11;100960.00;;;19.24;56.92
76627;BME280;65519;53.230;10.390;2023-07-20T11:10:37;100963.53;;;19.16;59.03
76627;BME280;65519;53.230;10.390;2023-07-20T11:16:01;100964.34;;;19.17;61.61
76627;BME280;65519;53.230;10.390;2023-07-20T11:18:28;100968.09;;;19.12;63.91
76627;BME280;65519;53.230;10.390;2023-07-20T11:20:54;100973.84;;;19.33;62.24
76627;BME280;65519;53.230;10.390;2023-07-20T11:23:20;100968.06;;;19.60;64.38
76627;BME280;65519;53.230;10.390;2023-07-20T11:25:46;100960.63;;;19.78;64.57
76627;BME280;65519;53.230;10.390;2023-07-20T11:28:12;100969.25;;;19.85;62.23
76627;BME280;65519;53.230;10.390;2023-07-20T11:30:38;100962.91;;;19.85;60.72
76627;BME280;65519;53.230;10.390;2023-07-20T11:33:04;100973.97;;;20.02;61.08
76627;BME280;65519;53.230;10.390;2023-07-20T11:35:34;100983.25;;;20.06;59.72
76627;BME280;65519;53.230;10.390;2023-07-20T11:38:00;100981.44;;;19.93;57.91
76627;BME280;65519;53.230;10.390;2023-07-20T11:40:25;100984.53;;;19.83;56.49
76627;BME280;65519;53.230;10.390;2023-07-20T11:42:51;100987.28;;;19.65;52.91
76627;BME280;65519;53.230;10.390;2023-07-20T11:45:18;100984.03;;;19.55;51.84
76627;BME280;65519;53.230;10.390;2023-07-20T11:47:44;100973.16;;;19.84;54.10
76627;BME280;65519;53.230;10.390;2023-07-20T11:50:10;100980.81;;;19.96;51.68
76627;BME280;65519;53.230;10.390;2023-07-20T11:52:36;100981.94;;;19.86;53.49
76627;BME280;65519;53.230;10.390;2023-07-20T11:55:03;100980.94;;;19.74;52.55
76627;BME280;65519;53.230;10.390;2023-07-20T11:57:29;100996.31;;;19.40;52.01
76627;BME280;65519;53.230;10.390;2023-07-20T12:00:00;100998.72;;;19.33;53.58
76627;BME280;65519;53.230;10.390;2023-07-20T12:02:27;100994.91;;;19.12;52.01
76627;BME280;65519;53.230;10.390;2023-07-20T12:04:57;100999.94;;;19.10;52.76
76627;BME280;65519;53.230;10.390;2023-07-20T12:07:23;101001.75;;;19.14;53.30
76627;BME280;65519;53.230;10.390;2023-07-20T12:12:41;100996.53;;;19.13;54.89
76627;BME280;65519;53.230;10.390;2023-07-20T12:15:26;100994.31;;;19.32;54.42
76627;BME280;65519;53.230;10.390;2023-07-20T12:17:53;100992.50;;;19.19;54.79
76627;BME280;65519;53.230;10.390;2023-07-20T12:20:27;100997.28;;;19.05;54.77
76627;BME280;65519;53.230;10.390;2023-07-20T12:22:56;101004.69;;;19.18;56.13
76627;BME280;65519;53.230;10.390;2023-07-20T12:25:22;101009.41;;;19.26;57.35
76627;BME280;65519;53.230;10.390;2023-07-20T12:27:48;101018.72;;;19.30;53.71
76627;BME280;65519;53.230;10.390;2023-07-20T12:30:14;101006.00;;;19.20;51.75
76627;BME280;65519;53.230;10.390;2023-07-20T12:32:40;101022.59;;;18.89;53.76
76627;BME280;65519;53.230;10.390;2023-07-20T12:35:05;101024.88;;;18.65;53.94
76627;BME280;65519;53.230;10.390;2023-07-20T12:37:31;101023.53;;;18.40;56.74
76627;BME280;65519;53.230;10.390;2023-07-20T12:39:57;101023.72;;;18.21;59.02
76627;BME280;65519;53.230;10.390;2023-07-20T12:42:22;101027.31;;;18.08;60.06
76627;BME280;65519;53.230;10.390;2023-07-20T12:44:49;101023.88;;;18.03;59.22
76627;BME280;65519;53.230;10.390;2023-07-20T12:47:15;101020.59;;;18.01;59.62
76627;BME280;65519;53.230;10.390;2023-07-20T12:49:41;101025.00;;;18.02;59.32
76627;BME280;65519;53.230;10.390;2023-07-20T12:52:10;101021.19;;;18.11;59.94
76627;BME280;65519;53.230;10.390;2023-07-20T12:54:36;101017.75;;;18.06;59.20
76627;BME280;65519;53.230;10.390;2023-07-20T12:57:02;101014.06;;;17.97;59.32
76627;BME280;65519;53.230;10.390;2023-07-20T12:59:29;101003.78;;;17.88;59.51